sensor_id;sensor_type;location;lat;lon;timestamp;P1;durP1;ratioP1;P2;durP2;ratioP2
75071;SDS011;63651;55.728;38.022;2022-12-05T00:00:34;4.55;;;2.60;;
75071;SDS011;63651;55.728;38.022;2022-12-05T00:05:38;4.38;;;2.83;;
75071;SDS011;63651;55.728;38.022;2022-12-05T00:10:40;4.63;;;2.75;;
75071;SDS011;63651;55.728;38.022;2022-12-05T00:15:42;4.55;;;2.83;;
75071;SDS011;63651;55.728;38.022;2022-12-05T00:20:44;4.45;;;2.40;;
75071;SDS011;63651;55.728;38.022;2022-12-05T00:25:45;4.22;;;2.70;;
75071;SDS011;63651;55.728;38.022;2022-12-05T00:30:46;4.20;;;2.60;;
75071;SDS011;63651;55.728;38.022;2022-12-05T00:35:47;4.13;;;2.75;;
75071;SDS011;63651;55.728;38.022;2022-12-05T00:40:48;4.95;;;2.55;;
75071;SDS011;63651;55.728;38.022;2022-12-05T00:45:49;4.28;;;2.90;;
75071;SDS011;63651;55.728;38.022;2022-12-05T00:50:58;5.25;;;2.78;;
75071;SDS011;63651;55.728;38.022;2022-12-05T00:56:03;4.78;;;2.60;;
75071;SDS011;63651;55.728;38.022;2022-12-05T01:01:16;4.25;;;2.80;;
75071;SDS011;63651;55.728;38.022;2022-12-05T01:06:20;5.65;;;3.10;;
75071;SDS011;63651;55.728;38.022;2022-12-05T01:11:22;4.93;;;2.95;;
75071;SDS011;63651;55.728;38.022;2022-12-05T01:16:29;4.75;;;2.75;;
75071;SDS011;63651;55.728;38.022;2022-12-05T01:21:32;5.10;;;3.22;;
75071;SDS011;63651;55.728;38.022;2022-12-05T01:26:33;5.57;;;3.20;;
75071;SDS011;63651;55.728;38.022;2022-12-05T01:31:35;5.22;;;3.20;;
75071;SDS011;63651;55.728;38.022;2022-12-05T01:36:37;5.75;;;3.40;;
75071;SDS011;63651;55.728;38.022;2022-12-05T01:41:43;5.45;;;3.28;;
75071;SDS011;63651;55.728;38.022;2022-12-05T01:46:47;5.18;;;3.17;;
75071;SDS011;63651;55.728;38.022;2022-12-05T01:51:54;4.03;;;2.97;;
75071;SDS011;63651;55.728;38.022;2022-12-05T01:57:00;4.15;;;3.03;;
75071;SDS011;63651;55.728;38.022;2022-12-05T02:02:03;4.60;;;2.72;;
75071;SDS011;63651;55.728;38.022;2022-12-05T02:07:05;4.38;;;3.45;;
75071;SDS011;63651;55.728;38.022;2022-12-05T02:12:06;4.38;;;2.90;;
75071;SDS011;63651;55.728;38.022;2022-12-05T02:38:10;8.55;;;4.63;;
75071;SDS011;63651;55.728;38.022;2022-12-05T02:43:15;8.00;;;4.38;;
75071;SDS011;63651;55.728;38.022;2022-12-05T02:48:25;7.13;;;4.45;;
75071;SDS011;63651;55.728;38.022;2022-12-05T02:53:28;6.70;;;4.10;;
75071;SDS011;63651;55.728;38.022;2022-12-05T02:58:34;6.97;;;3.67;;
75071;SDS011;63651;55.728;38.022;2022-12-05T03:03:40;5.57;;;3.28;;
75071;SDS011;63651;55.728;38.022;2022-12-05T03:08:47;4.72;;;3.17;;
75071;SDS011;63651;55.728;38.022;2022-12-05T03:13:59;6.57;;;3.42;;
75071;SDS011;63651;55.728;38.022;2022-12-05T03:19:05;4.30;;;2.78;;
75071;SDS011;63651;55.728;38.022;2022-12-05T03:24:12;4.30;;;3.10;;
75071;SDS011;63651;55.728;38.022;2022-12-05T03:29:24;6.63;;;3.25;;
75071;SDS011;63651;55.728;38.022;2022-12-05T03:45:24;9.85;;;6.25;;
75071;SDS011;63651;55.728;38.022;2022-12-05T03:50:29;8.43;;;5.18;;
75071;SDS011;63651;55.728;38.022;2022-12-05T03:55:32;7.47;;;4.82;;
75071;SDS011;63651;55.728;38.022;2022-12-05T04:00:39;6.60;;;4.65;;
75071;SDS011;63651;55.728;38.022;2022-12-05T04:05:44;6.00;;;3.65;;
75071;SDS011;63651;55.728;38.022;2022-12-05T04:10:51;4.93;;;3.55;;
75071;SDS011;63651;55.728;38.022;2022-12-05T04:16:03;4.97;;;3.17;;
75071;SDS011;63651;55.728;38.022;2022-12-05T04:21:40;5.05;;;3.70;;
75071;SDS011;63651;55.728;38.022;2022-12-05T04:26:45;4.75;;;3.38;;
75071;SDS011;63651;55.728;38.022;2022-12-05T04:31:54;4.43;;;2.97;;
75071;SDS011;63651;55.728;38.022;2022-12-05T04:37:05;8.70;;;4.32;;
75071;SDS011;63651;55.728;38.022;2022-12-05T04:42:17;6.57;;;3.70;;
75071;SDS011;63651;55.728;38.022;2022-12-05T04:47:23;5.82;;;3.22;;
75071;SDS011;63651;55.728;38.022;2022-12-05T04:52:29;6.25;;;3.85;;
75071;SDS011;63651;55.728;38.022;2022-12-05T04:57:39;4.68;;;3.15;;
75071;SDS011;63651;55.728;38.022;2022-12-05T05:02:49;7.28;;;4.35;;
75071;SDS011;63651;55.728;38.022;2022-12-05T05:07:54;10.20;;;6.30;;
75071;SDS011;63651;55.728;38.022;2022-12-05T05:12:56;7.43;;;4.53;;
75071;SDS011;63651;55.728;38.022;2022-12-05T05:17:57;7.97;;;4.40;;
75071;SDS011;63651;55.728;38.022;2022-12-05T05:22:58;5.78;;;4.10;;
75071;SDS011;63651;55.728;38.022;2022-12-05T05:27:59;7.20;;;4.13;;
75071;SDS011;63651;55.728;38.022;2022-12-05T05:33:00;5.50;;;3.63;;
75071;SDS011;63651;55.728;38.022;2022-12-05T05:38:01;7.03;;;3.47;;
75071;SDS011;63651;55.728;38.022;2022-12-05T05:43:03;4.47;;;3.47;;
75071;SDS011;63651;55.728;38.022;2022-12-05T05:48:04;6.13;;;3.30;;
75071;SDS011;63651;55.728;38.022;2022-12-05T05:53:05;6.13;;;3.40;;
75071;SDS011;63651;55.728;38.022;2022-12-05T05:58:07;6.72;;;4.00;;
75071;SDS011;63651;55.728;38.022;2022-12-05T06:03:08;5.78;;;3.70;;
75071;SDS011;63651;55.728;38.022;2022-12-05T06:08:09;4.18;;;2.97;;
75071;SDS011;63651;55.728;38.022;2022-12-05T06:13:10;6.32;;;3.70;;
75071;SDS011;63651;55.728;38.022;2022-12-05T06:18:11;6.05;;;4.18;;
75071;SDS011;63651;55.728;38.022;2022-12-05T06:23:15;7.50;;;4.63;;
75071;SDS011;63651;55.728;38.022;2022-12-05T06:28:17;6.45;;;4.10;;
75071;SDS011;63651;55.728;38.022;2022-12-05T06:33:19;5.75;;;3.65;;
75071;SDS011;63651;55.728;38.022;2022-12-05T06:38:20;7.80;;;4.80;;
75071;SDS011;63651;55.728;38.022;2022-12-05T06:43:21;6.55;;;4.47;;
75071;SDS011;63651;55.728;38.022;2022-12-05T06:48:22;8.93;;;5.25;;
75071;SDS011;63651;55.728;38.022;2022-12-05T06:53:23;8.07;;;4.82;;
75071;SDS011;63651;55.728;38.022;2022-12-05T06:58:24;6.97;;;4.32;;
75071;SDS011;63651;55.728;38.022;2022-12-05T07:03:26;8.70;;;4.78;;
75071;SDS011;63651;55.728;38.022;2022-12-05T07:08:27;8.43;;;4.97;;
75071;SDS011;63651;55.728;38.022;2022-12-05T07:13:28;5.38;;;3.88;;
75071;SDS011;63651;55.728;38.022;2022-12-05T07:18:30;5.78;;;4.45;;
75071;SDS011;63651;55.728;38.022;2022-12-05T07:23:31;5.13;;;3.30;;
75071;SDS011;63651;55.728;38.022;2022-12-05T07:28:33;6.47;;;4.30;;
75071;SDS011;63651;55.728;38.022;2022-12-05T07:33:35;8.10;;;4.28;;
75071;SDS011;63651;55.728;38.022;2022-12-05T07:38:36;8.30;;;4.57;;
75071;SDS011;63651;55.728;38.022;2022-12-05T07:43:38;6.70;;;4.53;;
75071;SDS011;63651;55.728;38.022;2022-12-05T07:48:39;9.07;;;4.88;;
75071;SDS011;63651;55.728;38.022;2022-12-05T07:53:40;8.55;;;5.28;;
75071;SDS011;63651;55.728;38.022;2022-12-05T07:58:44;8.35;;;5.45;;
75071;SDS011;63651;55.728;38.022;2022-12-05T08:03:46;8.43;;;5.15;;
75071;SDS011;63651;55.728;38.022;2022-12-05T08:08:48;9.98;;;5.05;;
75071;SDS011;63651;55.728;38.022;2022-12-05T08:13:51;9.00;;;5.25;;
75071;SDS011;63651;55.728;38.022;2022-12-05T08:19:03;7.43;;;4.82;;
75071;SDS011;63651;55.728;38.022;2022-12-05T08:24:06;8.93;;;5.68;;
75071;SDS011;63651;55.728;38.022;2022-12-05T08:29:08;9.25;;;4.80;;
75071;SDS011;63651;55.728;38.022;2022-12-05T08:34:12;10.57;;;6.00;;
75071;SDS011;63651;55.728;38.022;2022-12-05T08:39:16;9.02;;;5.30;;
75071;SDS011;63651;55.728;38.022;2022-12-05T08:44:18;8.50;;;5.13;;
75071;SDS011;63651;55.728;38.022;2022-12-05T08:49:19;11.18;;;5.60;;
75071;SDS011;63651;55.728;38.022;2022-12-05T08:54:20;10.85;;;5.70;;
75071;SDS011;63651;55.728;38.022;2022-12-05T08:59:21;12.77;;;5.40;;
75071;SDS011;63651;55.728;38.022;2022-12-05T09:04:22;8.98;;;5.93;;
75071;SDS011;63651;55.728;38.022;2022-12-05T09:09:25;9.40;;;5.45;;
75071;SDS011;63651;55.728;38.022;2022-12-05T09:14:26;8.35;;;5.38;;
75071;SDS011;63651;55.728;38.022;2022-12-05T09:19:32;10.23;;;5.50;;
75071;SDS011;63651;55.728;38.022;2022-12-05T09:24:33;8.50;;;5.20;;
75071;SDS011;63651;55.728;38.022;2022-12-05T09:29:34;10.13;;;5.70;;
75071;SDS011;63651;55.728;38.022;2022-12-05T09:34:36;8.30;;;5.20;;
75071;SDS011;63651;55.728;38.022;2022-12-05T09:39:37;8.20;;;5.13;;
75071;SDS011;63651;55.728;38.022;2022-12-05T09:50:44;8.05;;;4.95;;
75071;SDS011;63651;55.728;38.022;2022-12-05T09:55:49;7.97;;;5.30;;
75071;SDS011;63651;55.728;38.022;2022-12-05T10:01:03;8.38;;;5.72;;
75071;SDS011;63651;55.728;38.022;2022-12-05T10:06:20;7.65;;;5.10;;
75071;SDS011;63651;55.728;38.022;2022-12-05T10:11:33;7.53;;;4.60;;
75071;SDS011;63651;55.728;38.022;2022-12-05T10:16:49;8.30;;;4.57;;
75071;SDS011;63651;55.728;38.022;2022-12-05T10:21:58;6.68;;;4.93;;
75071;SDS011;63651;55.728;38.022;2022-12-05T10:27:05;6.35;;;4.70;;
75071;SDS011;63651;55.728;38.022;2022-12-05T10:32:12;6.85;;;4.13;;
75071;SDS011;63651;55.728;38.022;2022-12-05T10:37:20;8.45;;;4.95;;
75071;SDS011;63651;55.728;38.022;2022-12-05T10:42:30;6.75;;;4.25;;
75071;SDS011;63651;55.728;38.022;2022-12-05T10:47:34;7.30;;;4.35;;
75071;SDS011;63651;55.728;38.022;2022-12-05T10:52:35;5.97;;;4.55;;
75071;SDS011;63651;55.728;38.022;2022-12-05T10:57:36;5.40;;;4.00;;
75071;SDS011;63651;55.728;38.022;2022-12-05T11:02:37;6.40;;;4.45;;
75071;SDS011;63651;55.728;38.022;2022-12-05T11:12:44;6.60;;;4.22;;
75071;SDS011;63651;55.728;38.022;2022-12-05T11:17:45;6.32;;;3.78;;
75071;SDS011;63651;55.728;38.022;2022-12-05T11:22:48;5.47;;;3.72;;
75071;SDS011;63651;55.728;38.022;2022-12-05T11:27:50;5.05;;;3.35;;
75071;SDS011;63651;55.728;38.022;2022-12-05T11:32:51;6.25;;;4.05;;
75071;SDS011;63651;55.728;38.022;2022-12-05T11:38:21;6.22;;;3.88;;
75071;SDS011;63651;55.728;38.022;2022-12-05T11:43:40;6.50;;;3.95;;
75071;SDS011;63651;55.728;38.022;2022-12-05T12:00:11;10.60;;;7.32;;
75071;SDS011;63651;55.728;38.022;2022-12-05T12:36:37;30.55;;;20.60;;
75071;SDS011;63651;55.728;38.022;2022-12-05T12:57:16;17.30;;;11.05;;
75071;SDS011;63651;55.728;38.022;2022-12-05T13:02:43;15.80;;;9.93;;
75071;SDS011;63651;55.728;38.022;2022-12-05T13:07:55;13.57;;;8.85;;
75071;SDS011;63651;55.728;38.022;2022-12-05T13:13:02;10.73;;;6.68;;
75071;SDS011;63651;55.728;38.022;2022-12-05T13:18:04;11.10;;;7.35;;
75071;SDS011;63651;55.728;38.022;2022-12-05T13:23:10;8.90;;;5.72;;
75071;SDS011;63651;55.728;38.022;2022-12-05T13:28:37;9.77;;;5.72;;
75071;SDS011;63651;55.728;38.022;2022-12-05T13:33:44;9.32;;;5.13;;
75071;SDS011;63651;55.728;38.022;2022-12-05T13:38:47;6.82;;;4.65;;
75071;SDS011;63651;55.728;38.022;2022-12-05T13:44:06;9.55;;;5.20;;
75071;SDS011;63651;55.728;38.022;2022-12-05T13:49:15;8.93;;;4.88;;
75071;SDS011;63651;55.728;38.022;2022-12-05T13:54:24;8.95;;;5.70;;
75071;SDS011;63651;55.728;38.022;2022-12-05T14:05:31;9.07;;;5.97;;
75071;SDS011;63651;55.728;38.022;2022-12-05T14:15:37;12.27;;;7.13;;
75071;SDS011;63651;55.728;38.022;2022-12-05T14:36:55;10.32;;;6.68;;
75071;SDS011;63651;55.728;38.022;2022-12-05T14:47:47;10.85;;;5.82;;
75071;SDS011;63651;55.728;38.022;2022-12-05T14:58:25;8.07;;;5.50;;
75071;SDS011;63651;55.728;38.022;2022-12-05T15:03:41;8.63;;;5.45;;
75071;SDS011;63651;55.728;38.022;2022-12-05T15:08:58;10.00;;;6.30;;
75071;SDS011;63651;55.728;38.022;2022-12-05T15:19:13;7.18;;;5.15;;
75071;SDS011;63651;55.728;38.022;2022-12-05T15:24:18;7.68;;;5.13;;
75071;SDS011;63651;55.728;38.022;2022-12-05T15:50:15;7.05;;;4.38;;
75071;SDS011;63651;55.728;38.022;2022-12-05T15:55:32;6.45;;;4.43;;
75071;SDS011;63651;55.728;38.022;2022-12-05T16:00:47;7.65;;;4.93;;
75071;SDS011;63651;55.728;38.022;2022-12-05T16:05:56;7.28;;;4.63;;
75071;SDS011;63651;55.728;38.022;2022-12-05T16:11:07;5.53;;;3.85;;
75071;SDS011;63651;55.728;38.022;2022-12-05T16:16:13;6.47;;;4.35;;
75071;SDS011;63651;55.728;38.022;2022-12-05T16:26:37;5.93;;;3.85;;
75071;SDS011;63651;55.728;38.022;2022-12-05T16:31:39;6.00;;;4.30;;
75071;SDS011;63651;55.728;38.022;2022-12-05T16:36:45;6.03;;;4.20;;
75071;SDS011;63651;55.728;38.022;2022-12-05T16:41:47;7.90;;;5.13;;
75071;SDS011;63651;55.728;38.022;2022-12-05T16:46:50;7.18;;;5.10;;
75071;SDS011;63651;55.728;38.022;2022-12-05T16:51:59;7.75;;;5.78;;
75071;SDS011;63651;55.728;38.022;2022-12-05T16:57:00;7.13;;;4.40;;
75071;SDS011;63651;55.728;38.022;2022-12-05T17:02:04;6.80;;;4.80;;
75071;SDS011;63651;55.728;38.022;2022-12-05T17:07:10;7.15;;;4.10;;
75071;SDS011;63651;55.728;38.022;2022-12-05T17:12:18;6.90;;;4.35;;
75071;SDS011;63651;55.728;38.022;2022-12-05T17:17:22;6.10;;;4.53;;
75071;SDS011;63651;55.728;38.022;2022-12-05T17:22:23;6.68;;;4.25;;
75071;SDS011;63651;55.728;38.022;2022-12-05T17:27:26;6.25;;;4.50;;
75071;SDS011;63651;55.728;38.022;2022-12-05T17:32:27;7.38;;;5.20;;
75071;SDS011;63651;55.728;38.022;2022-12-05T17:37:28;7.35;;;4.72;;
75071;SDS011;63651;55.728;38.022;2022-12-05T17:42:29;8.20;;;4.90;;
75071;SDS011;63651;55.728;38.022;2022-12-05T17:47:30;7.63;;;4.38;;
75071;SDS011;63651;55.728;38.022;2022-12-05T17:52:32;8.88;;;5.63;;
75071;SDS011;63651;55.728;38.022;2022-12-05T17:57:33;9.82;;;6.53;;
75071;SDS011;63651;55.728;38.022;2022-12-05T18:02:34;8.23;;;4.95;;
75071;SDS011;63651;55.728;38.022;2022-12-05T18:07:36;6.18;;;4.75;;
75071;SDS011;63651;55.728;38.022;2022-12-05T18:12:41;8.45;;;5.25;;
75071;SDS011;63651;55.728;38.022;2022-12-05T18:17:42;6.80;;;4.20;;
75071;SDS011;63651;55.728;38.022;2022-12-05T18:22:44;6.60;;;4.50;;
75071;SDS011;63651;55.728;38.022;2022-12-05T18:27:45;6.70;;;4.93;;
75071;SDS011;63651;55.728;38.022;2022-12-05T18:32:46;8.13;;;5.22;;
75071;SDS011;63651;55.728;38.022;2022-12-05T18:37:47;7.30;;;4.53;;
75071;SDS011;63651;55.728;38.022;2022-12-05T18:42:48;7.25;;;4.95;;
75071;SDS011;63651;55.728;38.022;2022-12-05T18:47:49;6.38;;;4.32;;
75071;SDS011;63651;55.728;38.022;2022-12-05T18:52:50;6.60;;;3.83;;
75071;SDS011;63651;55.728;38.022;2022-12-05T18:57:52;7.30;;;4.30;;
75071;SDS011;63651;55.728;38.022;2022-12-05T19:02:55;7.07;;;4.40;;
75071;SDS011;63651;55.728;38.022;2022-12-05T19:07:57;10.32;;;7.07;;
75071;SDS011;63651;55.728;38.022;2022-12-05T19:12:58;9.70;;;5.43;;
75071;SDS011;63651;55.728;38.022;2022-12-05T19:17:59;6.50;;;4.47;;
75071;SDS011;63651;55.728;38.022;2022-12-05T19:23:00;7.80;;;4.50;;
75071;SDS011;63651;55.728;38.022;2022-12-05T19:28:01;5.65;;;4.07;;
75071;SDS011;63651;55.728;38.022;2022-12-05T19:33:02;7.95;;;5.18;;
75071;SDS011;63651;55.728;38.022;2022-12-05T19:38:06;6.20;;;4.10;;
75071;SDS011;63651;55.728;38.022;2022-12-05T19:43:07;6.88;;;4.40;;
75071;SDS011;63651;55.728;38.022;2022-12-05T19:48:08;6.65;;;4.65;;
75071;SDS011;63651;55.728;38.022;2022-12-05T19:53:10;7.57;;;4.78;;
75071;SDS011;63651;55.728;38.022;2022-12-05T19:58:11;7.38;;;4.50;;
75071;SDS011;63651;55.728;38.022;2022-12-05T20:03:13;6.30;;;4.25;;
75071;SDS011;63651;55.728;38.022;2022-12-05T20:08:14;6.40;;;4.35;;
75071;SDS011;63651;55.728;38.022;2022-12-05T20:13:15;7.10;;;4.10;;
75071;SDS011;63651;55.728;38.022;2022-12-05T20:18:16;5.60;;;3.85;;
75071;SDS011;63651;55.728;38.022;2022-12-05T20:23:17;7.00;;;4.60;;
75071;SDS011;63651;55.728;38.022;2022-12-05T20:28:18;5.70;;;3.85;;
75071;SDS011;63651;55.728;38.022;2022-12-05T20:33:19;7.72;;;4.32;;
75071;SDS011;63651;55.728;38.022;2022-12-05T20:38:20;5.72;;;3.53;;
75071;SDS011;63651;55.728;38.022;2022-12-05T20:43:21;4.68;;;3.45;;
75071;SDS011;63651;55.728;38.022;2022-12-05T20:48:23;7.05;;;3.78;;
75071;SDS011;63651;55.728;38.022;2022-12-05T20:53:25;5.53;;;3.45;;
75071;SDS011;63651;55.728;38.022;2022-12-05T20:58:36;6.57;;;3.45;;
75071;SDS011;63651;55.728;38.022;2022-12-05T21:03:39;7.38;;;3.58;;
75071;SDS011;63651;55.728;38.022;2022-12-05T21:08:41;6.30;;;3.42;;
75071;SDS011;63651;55.728;38.022;2022-12-05T21:13:44;5.15;;;3.78;;
75071;SDS011;63651;55.728;38.022;2022-12-05T21:18:45;6.35;;;3.70;;
75071;SDS011;63651;55.728;38.022;2022-12-05T21:23:51;6.25;;;3.67;;
75071;SDS011;63651;55.728;38.022;2022-12-05T21:28:57;5.93;;;3.97;;
75071;SDS011;63651;55.728;38.022;2022-12-05T21:34:01;5.60;;;3.60;;
75071;SDS011;63651;55.728;38.022;2022-12-05T21:39:04;5.07;;;3.05;;
75071;SDS011;63651;55.728;38.022;2022-12-05T21:44:06;5.68;;;3.33;;
75071;SDS011;63651;55.728;38.022;2022-12-05T21:49:07;5.22;;;3.35;;
75071;SDS011;63651;55.728;38.022;2022-12-05T21:54:08;5.13;;;3.40;;
75071;SDS011;63651;55.728;38.022;2022-12-05T21:59:10;4.97;;;3.03;;
75071;SDS011;63651;55.728;38.022;2022-12-05T22:04:11;5.20;;;2.78;;
75071;SDS011;63651;55.728;38.022;2022-12-05T22:09:12;4.70;;;3.00;;
75071;SDS011;63651;55.728;38.022;2022-12-05T22:14:14;4.00;;;2.95;;
75071;SDS011;63651;55.728;38.022;2022-12-05T22:19:15;3.88;;;2.83;;
75071;SDS011;63651;55.728;38.022;2022-12-05T22:24:16;5.88;;;3.40;;
75071;SDS011;63651;55.728;38.022;2022-12-05T22:29:17;4.95;;;3.17;;
75071;SDS011;63651;55.728;38.022;2022-12-05T22:34:18;6.20;;;3.47;;
75071;SDS011;63651;55.728;38.022;2022-12-05T22:39:19;4.60;;;3.10;;
75071;SDS011;63651;55.728;38.022;2022-12-05T22:44:20;5.55;;;3.28;;
75071;SDS011;63651;55.728;38.022;2022-12-05T22:49:21;4.57;;;3.10;;
75071;SDS011;63651;55.728;38.022;2022-12-05T22:54:22;5.90;;;3.50;;
75071;SDS011;63651;55.728;38.022;2022-12-05T22:59:24;5.65;;;3.20;;
75071;SDS011;63651;55.728;38.022;2022-12-05T23:04:25;6.47;;;4.03;;
75071;SDS011;63651;55.728;38.022;2022-12-05T23:09:27;6.72;;;3.55;;
75071;SDS011;63651;55.728;38.022;2022-12-05T23:14:28;4.35;;;2.85;;
75071;SDS011;63651;55.728;38.022;2022-12-05T23:19:29;4.72;;;3.03;;
75071;SDS011;63651;55.728;38.022;2022-12-05T23:24:30;5.57;;;2.72;;
75071;SDS011;63651;55.728;38.022;2022-12-05T23:29:31;3.53;;;2.53;;
75071;SDS011;63651;55.728;38.022;2022-12-05T23:34:32;3.38;;;2.40;;
75071;SDS011;63651;55.728;38.022;2022-12-05T23:39:33;4.47;;;3.10;;
75071;SDS011;63651;55.728;38.022;2022-12-05T23:44:34;4.03;;;2.75;;
75071;SDS011;63651;55.728;38.022;2022-12-05T23:49:35;5.78;;;2.40;;
75071;SDS011;63651;55.728;38.022;2022-12-05T23:54:36;4.65;;;2.65;;
75071;SDS011;63651;55.728;38.022;2022-12-05T23:59:38;4.90;;;2.72;;
